Terminal Aerodrome Forecast
Issued by NWS Cleveland, OH

Home | Current Version | Previous Version | Graphics & Text | Print | Product List | Glossary On
Versions: 1 2 3 4 5 6 7 8 9 10 11 12 13 14 15 16 17 18 19 20 21 22 23 24 25 26 27 28
000
FTUS41 KCLE 010301 AAB
TAFCLE
TAF AMD
KCLE 010301Z 0103/0206 22005KT P6SM -SHRA VCTS OVC050CB
      TEMPO 0103/0105 27010G20KT 5SM -SHRA BR OVC050
     FM010600 23007KT P6SM OVC015
     FM011000 23007KT P6SM OVC007
     FM011500 29009KT P6SM OVC015
     FM011800 29010KT P6SM SCT030 BKN040
     FM020000 VRB03KT P6SM SKC=

USA.gov is the U.S. government's official web portal to all federal, state and local government web resources and services.